createdAt,value
2019-02-20T00:01:56.602Z,94.10
2019-02-20T00:04:27.018Z,94.00
2019-02-20T00:06:57.671Z,93.80
2019-02-20T00:09:28.042Z,94.00
2019-02-20T00:11:58.654Z,94.10
2019-02-20T00:14:29.294Z,94.00
2019-02-20T00:17:00.169Z,93.80
2019-02-20T00:19:30.513Z,93.70
2019-02-20T00:22:00.863Z,93.80
2019-02-20T00:24:31.218Z,94.00
2019-02-20T00:27:01.923Z,93.30
2019-02-20T00:29:32.247Z,93.30
2019-02-20T00:32:02.615Z,93.30
2019-02-20T00:34:32.944Z,93.30
2019-02-20T00:37:03.601Z,93.30
2019-02-20T00:39:34.331Z,93.50
2019-02-20T00:42:04.928Z,93.60
2019-02-20T00:44:36.937Z,93.60
2019-02-20T00:47:20.993Z,93.40
2019-02-20T00:49:51.347Z,93.20
2019-02-20T00:52:26.311Z,93.00
2019-02-20T00:54:56.679Z,92.70
2019-02-20T00:57:27.271Z,92.60
2019-02-20T00:59:58.184Z,92.60
2019-02-20T01:02:28.530Z,92.60
2019-02-20T01:04:58.863Z,92.50
2019-02-20T01:07:29.529Z,92.40
2019-02-20T01:10:00.355Z,92.10
2019-02-20T01:12:30.763Z,92.20
2019-02-20T01:15:01.125Z,92.30
2019-02-20T01:17:31.445Z,92.00
2019-02-20T01:20:02.640Z,91.90
2019-02-20T01:22:33.227Z,91.70
2019-02-20T01:25:04.188Z,91.40
2019-02-20T01:27:35.096Z,91.70
2019-02-20T01:30:09.701Z,91.40
2019-02-20T01:32:40.407Z,91.10
2019-02-20T01:35:11.420Z,91.00
2019-02-20T01:37:41.830Z,91.00
2019-02-20T01:40:12.532Z,91.10
2019-02-20T01:42:43.226Z,90.70
2019-02-20T01:45:13.609Z,90.70
2019-02-20T01:47:44.212Z,90.80
2019-02-20T01:50:15.056Z,90.80
2019-02-20T01:52:45.425Z,90.70
2019-02-20T01:55:16.063Z,90.60
2019-02-20T01:57:46.413Z,90.00
2019-02-20T02:00:16.775Z,89.00
2019-02-20T02:02:47.097Z,87.80
2019-02-20T02:05:17.756Z,87.10
2019-02-20T02:07:48.339Z,87.10
2019-02-20T02:10:18.741Z,87.10
2019-02-20T02:12:49.606Z,87.10
2019-02-20T02:15:20.720Z,87.00
2019-02-20T02:17:51.186Z,86.00
2019-02-20T02:20:21.856Z,85.70
2019-02-20T02:22:52.433Z,86.20
2019-02-20T02:25:22.757Z,84.90
2019-02-20T02:27:53.106Z,84.60
2019-02-20T02:30:23.711Z,83.40
2019-02-20T02:32:54.468Z,83.00
2019-02-20T02:35:25.097Z,82.60
2019-02-20T02:37:55.418Z,80.90
2019-02-20T02:40:25.758Z,80.90
2019-02-20T02:42:56.366Z,81.00
2019-02-20T02:45:26.682Z,80.40
2019-02-20T02:47:57.284Z,79.60
2019-02-20T02:50:27.660Z,79.90
2019-02-20T02:52:58.313Z,79.00
2019-02-20T02:55:28.674Z,78.00
2019-02-20T02:57:59.007Z,76.60
2019-02-20T03:00:29.350Z,76.50
2019-02-20T03:02:59.713Z,76.90
2019-02-20T03:05:30.330Z,76.80
2019-02-20T03:08:01.176Z,77.10
2019-02-20T03:10:31.529Z,77.10
2019-02-20T03:13:02.471Z,77.20
2019-02-20T03:15:33.104Z,77.70
2019-02-20T03:18:04.287Z,77.80
2019-02-20T03:20:34.665Z,77.80
2019-02-20T03:23:05.264Z,78.90
2019-02-20T03:25:35.902Z,79.30
2019-02-20T03:28:06.254Z,79.20
2019-02-20T03:30:36.602Z,79.50
2019-02-20T03:33:07.159Z,79.70
2019-02-20T03:35:37.542Z,80.10
2019-02-20T03:38:08.155Z,80.00
2019-02-20T03:40:38.494Z,80.60
2019-02-20T03:43:09.170Z,80.60
2019-02-20T03:45:39.375Z,80.90
2019-02-20T03:48:09.716Z,81.90
2019-02-20T03:50:40.329Z,81.90
2019-02-20T03:53:10.737Z,82.00
2019-02-20T03:55:41.280Z,82.70
2019-02-20T03:58:11.666Z,82.50
2019-02-20T04:00:42.283Z,83.00
2019-02-20T04:03:12.611Z,83.10
2019-02-20T04:05:42.962Z,83.50
2019-02-20T04:08:13.609Z,83.70
2019-02-20T04:10:44.256Z,84.30
2019-02-20T04:13:14.899Z,84.90
2019-02-20T04:15:45.235Z,85.40
2019-02-20T04:18:16.175Z,84.90
2019-02-20T04:20:46.498Z,85.30
2019-02-20T04:23:17.101Z,85.30
2019-02-20T04:25:47.734Z,85.10
2019-02-20T04:28:18.677Z,84.60
2019-02-20T04:30:49.306Z,84.60
2019-02-20T04:33:19.888Z,84.50
2019-02-20T04:35:50.486Z,84.10
2019-02-20T04:38:20.805Z,84.10
2019-02-20T04:40:51.242Z,83.50
2019-02-20T04:43:22.379Z,83.40
2019-02-20T04:45:52.738Z,83.30
2019-02-20T04:48:23.362Z,83.30
2019-02-20T04:50:53.967Z,83.10
2019-02-20T04:53:24.313Z,82.10
2019-02-20T04:55:54.756Z,82.20
2019-02-20T04:58:25.094Z,82.00
2019-02-20T05:00:55.436Z,81.60
2019-02-20T05:03:26.358Z,80.40
2019-02-20T05:05:57.002Z,79.80
2019-02-20T05:08:27.415Z,80.00
2019-02-20T05:10:57.759Z,80.00
2019-02-20T05:13:28.384Z,79.60
2019-02-20T05:15:58.708Z,78.80
2019-02-20T05:18:29.920Z,78.90
2019-02-20T05:21:01.074Z,79.50
2019-02-20T05:23:31.471Z,80.10
2019-02-20T05:26:02.121Z,79.80
2019-02-20T05:28:32.994Z,78.20
2019-02-20T05:31:03.384Z,78.00
2019-02-20T05:33:34.012Z,77.10
2019-02-20T05:36:04.394Z,77.10
2019-02-20T05:38:34.717Z,77.30
2019-02-20T05:41:05.043Z,76.20
2019-02-20T05:43:35.705Z,75.70
2019-02-20T05:46:06.028Z,75.30
2019-02-20T05:48:36.381Z,74.90
2019-02-20T05:51:06.735Z,75.00
2019-02-20T05:53:37.441Z,75.30
2019-02-20T05:56:11.082Z,75.40
2019-02-20T05:58:41.430Z,75.10
2019-02-20T06:01:11.795Z,74.20
2019-02-20T06:03:42.163Z,73.60
2019-02-20T06:06:12.746Z,73.30
2019-02-20T06:08:43.100Z,73.10
2019-02-20T06:11:15.181Z,72.70
2019-02-20T06:13:45.850Z,72.20
2019-02-20T06:16:16.255Z,72.40
2019-02-20T06:18:46.589Z,73.50
2019-02-20T06:21:17.222Z,73.50
2019-02-20T06:23:47.555Z,73.40
2019-02-20T06:26:17.936Z,73.50
2019-02-20T06:28:48.318Z,73.30
2019-02-20T06:31:18.962Z,72.70
2019-02-20T06:33:49.560Z,73.00
2019-02-20T06:36:20.521Z,72.20
2019-02-20T06:38:50.862Z,72.80
2019-02-20T06:41:21.215Z,72.70
2019-02-20T06:43:51.852Z,72.70
2019-02-20T06:46:22.450Z,72.40
2019-02-20T06:48:52.802Z,71.80
2019-02-20T06:51:23.128Z,71.40
2019-02-20T06:53:53.850Z,71.40
2019-02-20T06:56:24.216Z,70.20
2019-02-20T06:58:54.835Z,69.30
2019-02-20T07:01:25.325Z,70.10
2019-02-20T07:03:55.980Z,69.80
2019-02-20T07:06:51.687Z,69.20
2019-02-20T07:09:49.009Z,68.50
2019-02-20T07:12:38.961Z,68.20
2019-02-20T07:15:28.939Z,67.70
2019-02-20T07:18:32.065Z,66.10
2019-02-20T07:21:25.192Z,66.80
2019-02-20T07:24:17.869Z,66.60
2019-02-20T07:27:13.704Z,65.30
2019-02-20T07:30:03.469Z,64.80
2019-02-20T07:32:33.793Z,64.70
2019-02-20T07:35:05.341Z,64.70
2019-02-20T07:37:35.685Z,65.50
2019-02-20T07:40:08.228Z,64.60
2019-02-20T07:42:38.765Z,64.60
2019-02-20T07:45:10.701Z,65.80
2019-02-20T07:47:41.045Z,64.80
2019-02-20T07:50:12.607Z,64.60
2019-02-20T07:52:43.247Z,64.20
2019-02-20T07:55:13.924Z,64.60
2019-02-20T07:57:44.580Z,64.10
2019-02-20T08:00:15.083Z,64.00
2019-02-20T08:02:45.428Z,64.50
2019-02-20T08:05:16.123Z,64.10
2019-02-20T08:07:47.029Z,64.50
2019-02-20T08:10:17.381Z,63.50
2019-02-20T08:12:48.013Z,62.70
2019-02-20T08:15:18.840Z,62.90
2019-02-20T08:17:49.462Z,61.50
2019-02-20T08:20:20.482Z,61.40
2019-02-20T08:22:50.854Z,60.90
2019-02-20T08:25:23.058Z,59.90
2019-02-20T08:27:53.258Z,60.00
2019-02-20T08:30:23.658Z,61.00
2019-02-20T08:32:54.545Z,61.10
2019-02-20T08:35:25.465Z,60.30
2019-02-20T08:37:56.080Z,61.10
2019-02-20T08:40:26.690Z,61.40
2019-02-20T08:42:57.341Z,61.00
2019-02-20T08:45:27.729Z,60.90
2019-02-20T08:47:58.080Z,60.10
2019-02-20T08:50:28.409Z,60.10
2019-02-20T08:52:58.790Z,60.10
2019-02-20T08:55:31.949Z,60.20
2019-02-20T08:58:01.705Z,59.20
2019-02-20T09:00:32.100Z,59.10
2019-02-20T09:03:02.732Z,58.80
2019-02-20T09:05:34.220Z,57.70
2019-02-20T09:08:04.711Z,57.70
2019-02-20T09:10:35.051Z,57.50
2019-02-20T09:13:05.581Z,56.40
2019-02-20T09:15:36.209Z,56.50
2019-02-20T09:18:06.825Z,55.90
2019-02-20T09:20:37.215Z,55.90
2019-02-20T09:23:07.839Z,56.60
2019-02-20T09:25:41.540Z,55.80
2019-02-20T09:28:10.245Z,54.60
2019-02-20T09:30:40.612Z,53.90
2019-02-20T09:33:10.988Z,54.40
2019-02-20T09:35:41.617Z,54.20
2019-02-20T09:38:12.283Z,52.90
2019-02-20T09:40:42.643Z,52.20
2019-02-20T09:43:13.273Z,52.70
2019-02-20T09:45:44.594Z,52.60
2019-02-20T09:48:15.285Z,53.50
2019-02-20T09:50:47.667Z,53.30
2019-02-20T09:53:18.011Z,53.40
2019-02-20T09:55:51.557Z,53.50
2019-02-20T09:58:20.424Z,53.50
2019-02-20T10:00:50.776Z,53.40
2019-02-20T10:03:22.344Z,52.90
2019-02-20T10:05:52.681Z,52.50
2019-02-20T10:08:23.317Z,52.00
2019-02-20T10:10:54.004Z,52.40
2019-02-20T10:13:24.694Z,52.30
2019-02-20T10:15:55.301Z,52.40
2019-02-20T10:18:25.698Z,51.80
2019-02-20T10:20:56.355Z,52.30
2019-02-20T10:23:26.967Z,51.90
2019-02-20T10:26:00.978Z,51.80
2019-02-20T10:28:29.360Z,52.20
2019-02-20T10:30:59.766Z,53.20
2019-02-20T10:33:30.078Z,52.90
2019-02-20T10:36:00.712Z,53.10
2019-02-20T10:38:31.618Z,53.00
2019-02-20T10:41:02.254Z,53.10
2019-02-20T10:43:32.951Z,52.20
2019-02-20T10:46:03.317Z,52.70
2019-02-20T10:48:33.698Z,51.80
2019-02-20T10:51:04.199Z,52.60
2019-02-20T10:53:34.570Z,51.10
2019-02-20T10:56:09.429Z,50.80
2019-02-20T10:58:37.652Z,51.20
2019-02-20T11:01:08.411Z,50.20
2019-02-20T11:03:38.785Z,50.40
2019-02-20T11:06:09.126Z,49.60
2019-02-20T11:08:39.737Z,50.20
2019-02-20T11:11:10.376Z,49.30
2019-02-20T11:13:40.781Z,49.70
2019-02-20T11:16:11.560Z,49.60
2019-02-20T11:18:42.222Z,49.50
2019-02-20T11:21:12.870Z,49.60
2019-02-20T11:23:43.231Z,49.60
2019-02-20T11:26:18.371Z,49.60
2019-02-20T11:28:45.909Z,48.80
2019-02-20T11:31:17.092Z,48.40
2019-02-20T11:33:47.491Z,48.50
2019-02-20T11:36:17.852Z,48.10
2019-02-20T11:38:48.203Z,48.00
2019-02-20T11:41:18.605Z,48.10
2019-02-20T11:43:49.013Z,48.00
2019-02-20T11:46:19.666Z,48.10
2019-02-20T11:48:50.050Z,48.00
2019-02-20T11:51:20.432Z,49.20
2019-02-20T11:53:51.333Z,48.30
2019-02-20T11:56:26.524Z,48.30
2019-02-20T11:58:54.398Z,48.80
2019-02-20T12:01:25.285Z,49.60
2019-02-20T12:03:55.676Z,50.00
2019-02-20T12:06:26.070Z,49.90
2019-02-20T12:08:56.458Z,49.50
2019-02-20T12:11:27.117Z,49.20
2019-02-20T12:13:57.454Z,49.10
2019-02-20T12:16:27.851Z,49.40
2019-02-20T12:18:58.213Z,49.30
2019-02-20T12:21:28.925Z,49.40
2019-02-20T12:23:59.818Z,49.20
2019-02-20T12:26:35.179Z,49.10
2019-02-20T12:29:02.521Z,48.60
2019-02-20T12:31:33.139Z,48.40
2019-02-20T12:34:03.800Z,48.90
2019-02-20T12:36:34.473Z,48.80
2019-02-20T12:39:05.416Z,48.20
2019-02-20T12:41:36.130Z,47.50
2019-02-20T12:44:06.480Z,47.50
2019-02-20T12:46:36.886Z,46.50
2019-02-20T12:49:07.512Z,46.60
2019-02-20T12:51:38.912Z,46.80
2019-02-20T12:54:09.961Z,47.50
2019-02-20T12:56:44.046Z,48.10
2019-02-20T12:59:13.217Z,48.00
2019-02-20T13:01:43.905Z,48.10
2019-02-20T13:04:14.555Z,48.10
2019-02-20T13:06:44.890Z,47.20
2019-02-20T13:09:16.285Z,47.30
2019-02-20T13:11:46.616Z,47.70
2019-02-20T13:14:16.977Z,45.90
2019-02-20T13:16:47.454Z,45.80
2019-02-20T13:19:18.214Z,46.00
2019-02-20T13:21:48.559Z,46.00
2019-02-20T13:24:18.915Z,46.10
2019-02-20T13:26:53.104Z,45.70
2019-02-20T13:29:21.935Z,45.40
2019-02-20T13:31:52.274Z,46.20
2019-02-20T13:34:23.013Z,45.70
2019-02-20T13:36:53.435Z,45.10
2019-02-20T13:39:24.080Z,44.30
2019-02-20T13:41:54.445Z,44.70
2019-02-20T13:44:24.809Z,45.30
2019-02-20T13:46:55.462Z,45.80
2019-02-20T13:49:25.872Z,45.40
2019-02-20T13:51:56.215Z,45.40
2019-02-20T13:54:26.851Z,44.60
2019-02-20T13:57:01.816Z,45.00
2019-02-20T13:59:29.947Z,44.50
2019-02-20T14:02:00.607Z,44.70
2019-02-20T14:04:31.512Z,44.80
2019-02-20T14:07:01.894Z,44.30
2019-02-20T14:09:32.890Z,44.30
2019-02-20T14:12:03.542Z,43.30
2019-02-20T14:14:33.928Z,43.80
2019-02-20T14:17:04.548Z,44.20
2019-02-20T14:19:35.206Z,44.20
2019-02-20T14:22:05.638Z,44.40
2019-02-20T14:24:35.975Z,43.80
2019-02-20T14:27:10.704Z,44.20
2019-02-20T14:29:38.695Z,45.00
2019-02-20T14:32:09.298Z,45.90
2019-02-20T14:34:39.637Z,45.70
2019-02-20T14:37:10.408Z,45.90
2019-02-20T14:39:41.034Z,46.10
2019-02-20T14:42:11.479Z,46.50
2019-02-20T14:44:41.843Z,46.40
2019-02-20T14:47:12.331Z,46.60
2019-02-20T14:49:43.026Z,46.30
2019-02-20T14:52:13.913Z,46.20
2019-02-20T14:54:44.885Z,46.40
2019-02-20T14:57:19.657Z,46.10
2019-02-20T14:59:47.785Z,46.60
2019-02-20T15:02:18.171Z,46.90
2019-02-20T15:04:48.615Z,47.00
2019-02-20T15:07:19.233Z,47.10
2019-02-20T15:09:49.569Z,47.10
2019-02-20T15:12:20.440Z,46.90
2019-02-20T15:14:50.818Z,47.50
2019-02-20T15:17:21.700Z,47.40
2019-02-20T15:19:52.075Z,47.40
2019-02-20T15:22:22.469Z,47.40
2019-02-20T15:24:53.110Z,47.30
2019-02-20T15:27:28.650Z,47.40
2019-02-20T15:29:55.820Z,48.00
2019-02-20T15:32:26.228Z,47.70
2019-02-20T15:34:56.832Z,48.10
2019-02-20T15:37:27.238Z,48.10
2019-02-20T15:39:57.947Z,48.80
2019-02-20T15:42:28.555Z,48.60
2019-02-20T15:44:58.933Z,48.40
2019-02-20T15:47:29.926Z,48.90
2019-02-20T15:50:00.356Z,49.00
2019-02-20T15:52:31.022Z,49.10
2019-02-20T15:55:01.687Z,49.20
2019-02-20T15:57:38.002Z,49.20
2019-02-20T16:00:06.571Z,49.20
2019-02-20T16:02:36.910Z,48.80
2019-02-20T16:05:07.815Z,49.00
2019-02-20T16:07:38.234Z,49.20
2019-02-20T16:10:10.705Z,49.40
2019-02-20T16:12:43.007Z,49.90
2019-02-20T16:15:14.752Z,50.00
2019-02-20T16:17:45.228Z,50.30
2019-02-20T16:20:15.969Z,50.50
2019-02-20T16:22:46.596Z,51.30
2019-02-20T16:25:17.302Z,50.70
2019-02-20T16:27:47.991Z,51.10
2019-02-20T16:30:18.657Z,51.10
2019-02-20T16:32:51.187Z,51.60
2019-02-20T16:35:21.603Z,51.60
2019-02-20T16:37:52.004Z,51.60
2019-02-20T16:40:22.334Z,51.60
2019-02-20T16:42:52.987Z,51.70
2019-02-20T16:45:25.232Z,51.90
2019-02-20T16:47:56.014Z,52.60
2019-02-20T16:50:26.643Z,52.60
2019-02-20T16:52:57.334Z,52.90
2019-02-20T16:55:27.689Z,53.00
2019-02-20T16:57:58.085Z,52.80
2019-02-20T17:00:29.054Z,52.80
2019-02-20T17:02:59.534Z,52.80
2019-02-20T17:05:29.919Z,53.50
2019-02-20T17:08:00.527Z,53.20
2019-02-20T17:10:30.885Z,53.30
2019-02-20T17:13:01.248Z,53.30
2019-02-20T17:15:32.183Z,53.30
2019-02-20T17:18:02.544Z,53.10
2019-02-20T17:20:32.944Z,53.00
2019-02-20T17:23:03.564Z,53.50
2019-02-20T17:25:33.909Z,53.40
2019-02-20T17:28:06.020Z,54.60
2019-02-20T17:30:36.542Z,53.50
2019-02-20T17:33:06.873Z,54.90
2019-02-20T17:35:37.261Z,54.80
2019-02-20T17:38:08.286Z,55.20
2019-02-20T17:40:38.646Z,55.10
2019-02-20T17:43:09.612Z,55.20
2019-02-20T17:45:39.954Z,55.20
2019-02-20T17:48:10.562Z,55.20
2019-02-20T17:50:40.937Z,55.40
2019-02-20T17:53:11.613Z,55.60
2019-02-20T17:55:42.754Z,55.30
2019-02-20T17:58:15.353Z,55.40
2019-02-20T18:00:45.945Z,55.60
2019-02-20T18:03:16.348Z,55.80
2019-02-20T18:05:46.761Z,55.70
2019-02-20T18:08:17.112Z,55.70
2019-02-20T18:10:47.722Z,55.70
2019-02-20T18:13:19.733Z,55.70
2019-02-20T18:15:50.205Z,55.80
2019-02-20T18:18:20.829Z,55.90
2019-02-20T18:20:51.181Z,56.50
2019-02-20T18:23:21.793Z,56.40
2019-02-20T18:25:52.407Z,56.40
2019-02-20T18:28:24.817Z,56.40
2019-02-20T18:30:54.857Z,56.30
2019-02-20T18:33:25.233Z,56.30
2019-02-20T18:35:55.584Z,56.30
2019-02-20T18:38:26.291Z,56.30
2019-02-20T18:40:56.664Z,56.20
2019-02-20T18:43:27.248Z,56.40
2019-02-20T18:45:58.195Z,57.50
2019-02-20T18:48:28.548Z,57.10
2019-02-20T18:50:59.334Z,57.30
2019-02-20T18:53:31.034Z,56.70
2019-02-20T18:56:01.471Z,56.80
2019-02-20T18:58:34.014Z,56.80
2019-02-20T19:01:03.830Z,56.90
2019-02-20T19:03:34.234Z,56.80
2019-02-20T19:06:04.635Z,57.10
2019-02-20T19:08:39.744Z,57.10
2019-02-20T19:11:26.708Z,56.90
2019-02-20T19:14:25.743Z,57.20
2019-02-20T19:17:24.721Z,57.00
2019-02-20T19:20:14.188Z,56.90
2019-02-20T19:23:06.425Z,57.10
2019-02-20T19:26:26.428Z,57.20
2019-02-20T19:29:38.509Z,56.90
2019-02-20T19:32:43.681Z,57.10
2019-02-20T19:35:55.051Z,57.10
2019-02-20T19:38:50.553Z,57.40
2019-02-20T19:41:43.570Z,57.30
2019-02-20T19:44:33.877Z,57.40
2019-02-20T19:47:11.807Z,57.80
2019-02-20T19:50:32.906Z,57.80
2019-02-20T19:53:19.641Z,57.80
2019-02-20T19:56:16.821Z,57.60
2019-02-20T19:59:11.100Z,57.40
2019-02-20T20:02:27.827Z,57.10
2019-02-20T20:05:17.328Z,56.90
2019-02-20T20:08:22.225Z,56.80
2019-02-20T20:11:16.491Z,56.90
2019-02-20T20:14:15.748Z,57.30
2019-02-20T20:17:24.905Z,57.00
2019-02-20T20:20:11.954Z,56.90
2019-02-20T20:22:49.867Z,56.50
2019-02-20T20:25:43.018Z,56.50
2019-02-20T20:28:27.018Z,56.60
2019-02-20T20:31:11.452Z,57.00
2019-02-20T20:34:18.399Z,57.10
2019-02-20T20:37:11.225Z,56.90
2019-02-20T20:39:52.021Z,57.00
2019-02-20T20:42:51.957Z,56.70
2019-02-20T20:45:48.506Z,57.10
2019-02-20T20:48:47.931Z,57.00
2019-02-20T20:51:54.503Z,56.60
2019-02-20T20:54:47.665Z,56.50
2019-02-20T20:58:06.740Z,56.90
2019-02-20T21:01:13.092Z,56.70
2019-02-20T21:04:20.657Z,56.60
2019-02-20T21:07:19.384Z,56.40
2019-02-20T21:10:09.468Z,56.40
2019-02-20T21:12:56.481Z,56.50
2019-02-20T21:15:59.662Z,56.40
2019-02-20T21:18:45.839Z,57.10
2019-02-20T21:21:44.765Z,57.20
2019-02-20T21:24:46.159Z,57.20
2019-02-20T21:27:45.318Z,57.30
2019-02-20T21:30:49.194Z,57.30
2019-02-20T21:33:58.506Z,57.10
2019-02-20T21:36:36.980Z,57.10
2019-02-20T21:39:14.883Z,57.70
2019-02-20T21:42:01.437Z,57.40
2019-02-20T21:44:51.193Z,57.90
2019-02-20T21:48:17.570Z,58.10
2019-02-20T21:51:04.367Z,58.60
2019-02-20T21:54:08.050Z,58.80
2019-02-20T21:57:12.995Z,59.40
2019-02-20T22:00:21.099Z,59.20
2019-02-20T22:03:11.366Z,59.60
2019-02-20T22:05:52.170Z,59.60
2019-02-20T22:08:30.702Z,59.60
2019-02-20T22:11:17.671Z,59.60
2019-02-20T22:13:56.034Z,60.50
2019-02-20T22:16:37.104Z,60.70
2019-02-20T22:19:17.709Z,61.10
2019-02-20T22:22:28.729Z,61.10
2019-02-20T22:25:32.036Z,61.40
2019-02-20T22:28:29.380Z,61.60
2019-02-20T22:31:20.751Z,61.80
2019-02-20T22:34:23.139Z,62.00
2019-02-20T22:37:38.523Z,62.40
2019-02-20T22:40:14.075Z,63.20
2019-02-20T22:43:06.985Z,63.80
2019-02-20T22:45:58.825Z,63.80
2019-02-20T22:49:10.178Z,64.20
2019-02-20T22:52:05.913Z,64.70
2019-02-20T22:55:29.227Z,65.20
2019-02-20T22:58:04.535Z,65.20
2019-02-20T23:01:17.439Z,65.70
2019-02-20T23:04:21.283Z,65.30
2019-02-20T23:07:02.569Z,65.50
2019-02-20T23:09:57.266Z,66.10
2019-02-20T23:12:41.112Z,66.30
2019-02-20T23:15:11.443Z,66.40
2019-02-20T23:17:41.837Z,67.20
2019-02-20T23:20:12.717Z,66.60
2019-02-20T23:22:43.300Z,66.70
2019-02-20T23:25:13.729Z,66.50
2019-02-20T23:27:44.083Z,66.80
2019-02-20T23:30:14.420Z,66.60
2019-02-20T23:32:44.761Z,66.40
2019-02-20T23:35:15.423Z,66.10
2019-02-20T23:37:46.338Z,66.10
2019-02-20T23:40:17.008Z,65.80
2019-02-20T23:42:49.098Z,66.10
2019-02-20T23:45:20.061Z,65.10
2019-02-20T23:47:50.976Z,65.50
2019-02-20T23:50:21.339Z,65.10
2019-02-20T23:52:52.313Z,65.00
2019-02-20T23:55:22.717Z,64.70
2019-02-20T23:57:53.035Z,64.60
